Terminal Aerodrome Forecast
Issued by NWS

Home | Current Version | Previous Version | Text Only | Print | Product List | Glossary On
Versions: 1 2 3 4 5 6 7 8 9 10 11 12 13 14 15 16
721
FTUS46 KPDT 192320
TAFRDM
TAF
KRDM 192320Z 2000/2024 18008KT P6SM SCT040 BKN120
     FM201000 18011KT 6SM BR SCT020 BKN035 OVC050
     FM201500 18012KT 4SM -SN BR OVC015=

USA.gov is the U.S. government's official web portal to all federal, state and local government web resources and services.